sensor_id;sensor_type;location;lat;lon;timestamp;P1;durP1;ratioP1;P2;durP2;ratioP2
61635;SDS011;59438;45.014;39.006;2023-06-01T00:02:19;12.68;;;5.15;;
61635;SDS011;59438;45.014;39.006;2023-06-01T00:04:47;7.60;;;4.97;;
61635;SDS011;59438;45.014;39.006;2023-06-01T00:07:14;9.75;;;5.50;;
61635;SDS011;59438;45.014;39.006;2023-06-01T00:09:40;11.73;;;4.93;;
61635;SDS011;59438;45.014;39.006;2023-06-01T00:12:07;7.43;;;4.82;;
61635;SDS011;59438;45.014;39.006;2023-06-01T00:14:34;8.27;;;5.38;;
61635;SDS011;59438;45.014;39.006;2023-06-01T00:17:00;12.23;;;4.88;;
61635;SDS011;59438;45.014;39.006;2023-06-01T00:19:27;10.05;;;5.40;;
61635;SDS011;59438;45.014;39.006;2023-06-01T00:21:55;9.27;;;6.35;;
61635;SDS011;59438;45.014;39.006;2023-06-01T00:24:21;11.32;;;7.03;;
61635;SDS011;59438;45.014;39.006;2023-06-01T00:26:48;7.55;;;6.20;;
61635;SDS011;59438;45.014;39.006;2023-06-01T00:29:14;8.45;;;6.00;;
61635;SDS011;59438;45.014;39.006;2023-06-01T00:31:41;7.85;;;5.57;;
61635;SDS011;59438;45.014;39.006;2023-06-01T00:34:07;11.57;;;5.47;;
61635;SDS011;59438;45.014;39.006;2023-06-01T00:36:34;8.90;;;5.50;;
61635;SDS011;59438;45.014;39.006;2023-06-01T00:39:01;7.93;;;5.20;;
61635;SDS011;59438;45.014;39.006;2023-06-01T00:41:28;8.15;;;5.15;;
61635;SDS011;59438;45.014;39.006;2023-06-01T00:43:54;9.93;;;5.25;;
61635;SDS011;59438;45.014;39.006;2023-06-01T00:46:21;7.80;;;5.82;;
61635;SDS011;59438;45.014;39.006;2023-06-01T00:48:47;12.82;;;8.20;;
61635;SDS011;59438;45.014;39.006;2023-06-01T00:51:14;13.07;;;6.25;;
61635;SDS011;59438;45.014;39.006;2023-06-01T00:53:40;8.05;;;5.70;;
61635;SDS011;59438;45.014;39.006;2023-06-01T00:56:10;9.35;;;5.25;;
61635;SDS011;59438;45.014;39.006;2023-06-01T00:58:36;7.68;;;4.97;;
61635;SDS011;59438;45.014;39.006;2023-06-01T01:01:02;7.97;;;4.90;;
61635;SDS011;59438;45.014;39.006;2023-06-01T01:03:29;9.50;;;4.97;;
61635;SDS011;59438;45.014;39.006;2023-06-01T01:05:58;9.27;;;4.82;;
61635;SDS011;59438;45.014;39.006;2023-06-01T01:08:34;8.35;;;5.20;;
61635;SDS011;59438;45.014;39.006;2023-06-01T01:11:07;10.10;;;4.65;;
61635;SDS011;59438;45.014;39.006;2023-06-01T01:13:42;9.73;;;5.38;;
61635;SDS011;59438;45.014;39.006;2023-06-01T01:16:14;12.02;;;4.55;;
61635;SDS011;59438;45.014;39.006;2023-06-01T01:18:49;7.78;;;4.57;;
61635;SDS011;59438;45.014;39.006;2023-06-01T01:21:24;7.38;;;4.40;;
61635;SDS011;59438;45.014;39.006;2023-06-01T01:24:01;9.57;;;4.47;;
61635;SDS011;59438;45.014;39.006;2023-06-01T01:26:54;9.07;;;4.80;;
61635;SDS011;59438;45.014;39.006;2023-06-01T01:29:31;8.02;;;4.40;;
61635;SDS011;59438;45.014;39.006;2023-06-01T01:32:00;7.55;;;4.32;;
61635;SDS011;59438;45.014;39.006;2023-06-01T01:34:29;5.72;;;4.13;;
61635;SDS011;59438;45.014;39.006;2023-06-01T01:36:57;6.82;;;4.20;;
61635;SDS011;59438;45.014;39.006;2023-06-01T01:39:24;8.20;;;4.15;;
61635;SDS011;59438;45.014;39.006;2023-06-01T01:41:51;5.55;;;4.40;;
61635;SDS011;59438;45.014;39.006;2023-06-01T01:44:17;9.55;;;4.60;;
61635;SDS011;59438;45.014;39.006;2023-06-01T01:46:47;14.43;;;5.10;;
61635;SDS011;59438;45.014;39.006;2023-06-01T01:49:20;9.32;;;4.60;;
61635;SDS011;59438;45.014;39.006;2023-06-01T01:51:54;10.90;;;4.82;;
61635;SDS011;59438;45.014;39.006;2023-06-01T01:54:28;8.07;;;4.60;;
61635;SDS011;59438;45.014;39.006;2023-06-01T01:56:57;9.25;;;4.75;;
61635;SDS011;59438;45.014;39.006;2023-06-01T01:59:25;7.07;;;4.35;;
61635;SDS011;59438;45.014;39.006;2023-06-01T02:01:53;8.20;;;4.68;;
61635;SDS011;59438;45.014;39.006;2023-06-01T02:04:21;8.23;;;4.68;;
61635;SDS011;59438;45.014;39.006;2023-06-01T02:06:47;8.77;;;4.70;;
61635;SDS011;59438;45.014;39.006;2023-06-01T02:09:14;7.18;;;4.53;;
61635;SDS011;59438;45.014;39.006;2023-06-01T02:11:40;12.43;;;4.65;;
61635;SDS011;59438;45.014;39.006;2023-06-01T02:14:06;8.82;;;4.70;;
61635;SDS011;59438;45.014;39.006;2023-06-01T02:16:33;7.88;;;5.05;;
61635;SDS011;59438;45.014;39.006;2023-06-01T02:19:00;8.00;;;4.82;;
61635;SDS011;59438;45.014;39.006;2023-06-01T02:21:27;10.90;;;4.88;;
61635;SDS011;59438;45.014;39.006;2023-06-01T02:23:54;7.07;;;4.20;;
61635;SDS011;59438;45.014;39.006;2023-06-01T02:26:20;8.55;;;4.38;;
61635;SDS011;59438;45.014;39.006;2023-06-01T02:28:47;7.13;;;4.30;;
61635;SDS011;59438;45.014;39.006;2023-06-01T02:31:13;6.53;;;3.72;;
61635;SDS011;59438;45.014;39.006;2023-06-01T02:33:40;10.30;;;4.45;;
61635;SDS011;59438;45.014;39.006;2023-06-01T02:36:08;6.13;;;3.92;;
61635;SDS011;59438;45.014;39.006;2023-06-01T02:38:34;5.97;;;4.20;;
61635;SDS011;59438;45.014;39.006;2023-06-01T02:41:00;5.78;;;4.28;;
61635;SDS011;59438;45.014;39.006;2023-06-01T02:43:27;6.70;;;4.25;;
61635;SDS011;59438;45.014;39.006;2023-06-01T02:45:53;9.00;;;3.88;;
61635;SDS011;59438;45.014;39.006;2023-06-01T02:48:19;8.60;;;4.30;;
61635;SDS011;59438;45.014;39.006;2023-06-01T02:50:46;7.13;;;4.00;;
61635;SDS011;59438;45.014;39.006;2023-06-01T02:53:13;8.82;;;4.53;;
61635;SDS011;59438;45.014;39.006;2023-06-01T02:55:40;8.98;;;4.47;;
61635;SDS011;59438;45.014;39.006;2023-06-01T02:58:06;6.60;;;4.30;;
61635;SDS011;59438;45.014;39.006;2023-06-01T03:00:32;8.73;;;4.63;;
61635;SDS011;59438;45.014;39.006;2023-06-01T03:02:59;9.77;;;4.50;;
61635;SDS011;59438;45.014;39.006;2023-06-01T03:05:25;8.00;;;3.97;;
61635;SDS011;59438;45.014;39.006;2023-06-01T03:07:51;11.38;;;4.30;;
61635;SDS011;59438;45.014;39.006;2023-06-01T03:10:19;9.40;;;4.68;;
61635;SDS011;59438;45.014;39.006;2023-06-01T03:12:45;11.48;;;4.50;;
61635;SDS011;59438;45.014;39.006;2023-06-01T03:15:12;10.55;;;4.47;;
61635;SDS011;59438;45.014;39.006;2023-06-01T03:17:38;8.40;;;4.22;;
61635;SDS011;59438;45.014;39.006;2023-06-01T03:20:05;8.32;;;4.20;;
61635;SDS011;59438;45.014;39.006;2023-06-01T03:22:32;15.20;;;4.60;;
61635;SDS011;59438;45.014;39.006;2023-06-01T03:24:58;8.70;;;4.70;;
61635;SDS011;59438;45.014;39.006;2023-06-01T03:27:26;7.57;;;4.28;;
61635;SDS011;59438;45.014;39.006;2023-06-01T03:29:52;7.60;;;4.65;;
61635;SDS011;59438;45.014;39.006;2023-06-01T03:32:19;9.50;;;4.28;;
61635;SDS011;59438;45.014;39.006;2023-06-01T03:34:45;9.32;;;4.32;;
61635;SDS011;59438;45.014;39.006;2023-06-01T03:37:11;10.05;;;4.13;;
61635;SDS011;59438;45.014;39.006;2023-06-01T03:39:38;8.45;;;4.60;;
61635;SDS011;59438;45.014;39.006;2023-06-01T03:42:04;8.32;;;4.63;;
61635;SDS011;59438;45.014;39.006;2023-06-01T03:44:32;9.13;;;4.85;;
61635;SDS011;59438;45.014;39.006;2023-06-01T03:46:59;6.53;;;4.15;;
61635;SDS011;59438;45.014;39.006;2023-06-01T03:49:25;8.55;;;3.80;;
61635;SDS011;59438;45.014;39.006;2023-06-01T03:51:51;5.30;;;4.20;;
61635;SDS011;59438;45.014;39.006;2023-06-01T03:54:18;8.07;;;4.80;;
61635;SDS011;59438;45.014;39.006;2023-06-01T03:56:45;9.15;;;4.28;;
61635;SDS011;59438;45.014;39.006;2023-06-01T03:59:11;9.27;;;4.60;;
61635;SDS011;59438;45.014;39.006;2023-06-01T04:01:39;9.63;;;4.20;;
61635;SDS011;59438;45.014;39.006;2023-06-01T04:04:06;8.13;;;4.53;;
61635;SDS011;59438;45.014;39.006;2023-06-01T04:06:32;12.77;;;4.38;;
61635;SDS011;59438;45.014;39.006;2023-06-01T04:08:59;12.98;;;4.50;;
61635;SDS011;59438;45.014;39.006;2023-06-01T04:11:25;9.95;;;4.35;;
61635;SDS011;59438;45.014;39.006;2023-06-01T04:13:51;9.40;;;4.38;;
61635;SDS011;59438;45.014;39.006;2023-06-01T04:16:18;10.05;;;4.40;;
61635;SDS011;59438;45.014;39.006;2023-06-01T04:18:45;13.52;;;4.55;;
61635;SDS011;59438;45.014;39.006;2023-06-01T04:21:12;12.00;;;4.20;;
61635;SDS011;59438;45.014;39.006;2023-06-01T04:23:38;7.90;;;4.18;;
61635;SDS011;59438;45.014;39.006;2023-06-01T04:26:04;9.32;;;4.63;;
61635;SDS011;59438;45.014;39.006;2023-06-01T04:28:31;7.93;;;4.70;;
61635;SDS011;59438;45.014;39.006;2023-06-01T04:30:57;6.82;;;4.45;;
61635;SDS011;59438;45.014;39.006;2023-06-01T04:33:24;12.60;;;4.78;;
61635;SDS011;59438;45.014;39.006;2023-06-01T04:35:52;5.82;;;4.22;;
61635;SDS011;59438;45.014;39.006;2023-06-01T04:38:18;10.05;;;4.38;;
61635;SDS011;59438;45.014;39.006;2023-06-01T04:40:44;10.25;;;4.03;;
61635;SDS011;59438;45.014;39.006;2023-06-01T04:43:11;8.13;;;3.97;;
61635;SDS011;59438;45.014;39.006;2023-06-01T04:45:37;7.35;;;4.22;;
61635;SDS011;59438;45.014;39.006;2023-06-01T04:48:04;6.85;;;4.38;;
61635;SDS011;59438;45.014;39.006;2023-06-01T04:50:30;8.20;;;4.32;;
61635;SDS011;59438;45.014;39.006;2023-06-01T04:52:58;8.00;;;4.40;;
61635;SDS011;59438;45.014;39.006;2023-06-01T04:55:24;10.40;;;4.38;;
61635;SDS011;59438;45.014;39.006;2023-06-01T04:57:51;9.95;;;4.68;;
61635;SDS011;59438;45.014;39.006;2023-06-01T05:00:17;8.70;;;4.78;;
61635;SDS011;59438;45.014;39.006;2023-06-01T05:02:44;14.05;;;4.90;;
61635;SDS011;59438;45.014;39.006;2023-06-01T05:05:11;11.88;;;4.40;;
61635;SDS011;59438;45.014;39.006;2023-06-01T05:07:38;7.95;;;4.13;;
61635;SDS011;59438;45.014;39.006;2023-06-01T05:10:07;9.35;;;4.50;;
61635;SDS011;59438;45.014;39.006;2023-06-01T05:12:35;7.30;;;3.80;;
61635;SDS011;59438;45.014;39.006;2023-06-01T05:15:03;12.77;;;4.28;;
61635;SDS011;59438;45.014;39.006;2023-06-01T05:17:31;12.43;;;4.47;;
61635;SDS011;59438;45.014;39.006;2023-06-01T05:19:58;7.05;;;3.97;;
61635;SDS011;59438;45.014;39.006;2023-06-01T05:22:24;6.32;;;4.55;;
61635;SDS011;59438;45.014;39.006;2023-06-01T05:24:50;7.30;;;4.03;;
61635;SDS011;59438;45.014;39.006;2023-06-01T05:27:18;7.93;;;3.97;;
61635;SDS011;59438;45.014;39.006;2023-06-01T05:29:45;10.13;;;4.63;;
61635;SDS011;59438;45.014;39.006;2023-06-01T05:32:11;10.63;;;4.50;;
61635;SDS011;59438;45.014;39.006;2023-06-01T05:34:37;10.45;;;4.03;;
61635;SDS011;59438;45.014;39.006;2023-06-01T05:37:04;6.80;;;4.47;;
61635;SDS011;59438;45.014;39.006;2023-06-01T05:39:30;11.02;;;4.45;;
61635;SDS011;59438;45.014;39.006;2023-06-01T05:41:57;14.13;;;4.72;;
61635;SDS011;59438;45.014;39.006;2023-06-01T05:44:24;6.55;;;3.95;;
61635;SDS011;59438;45.014;39.006;2023-06-01T05:46:51;8.68;;;4.20;;
61635;SDS011;59438;45.014;39.006;2023-06-01T05:49:17;8.73;;;4.60;;
61635;SDS011;59438;45.014;39.006;2023-06-01T05:51:44;12.02;;;4.47;;
61635;SDS011;59438;45.014;39.006;2023-06-01T05:54:10;6.47;;;4.57;;
61635;SDS011;59438;45.014;39.006;2023-06-01T05:56:37;9.68;;;4.35;;
61635;SDS011;59438;45.014;39.006;2023-06-01T05:59:03;14.93;;;4.60;;
61635;SDS011;59438;45.014;39.006;2023-06-01T06:01:31;6.38;;;4.63;;
61635;SDS011;59438;45.014;39.006;2023-06-01T06:03:57;10.05;;;5.10;;
61635;SDS011;59438;45.014;39.006;2023-06-01T06:06:24;8.40;;;5.03;;
61635;SDS011;59438;45.014;39.006;2023-06-01T06:08:51;10.73;;;5.03;;
61635;SDS011;59438;45.014;39.006;2023-06-01T06:11:18;9.32;;;4.82;;
61635;SDS011;59438;45.014;39.006;2023-06-01T06:13:44;9.77;;;5.18;;
61635;SDS011;59438;45.014;39.006;2023-06-01T06:16:13;7.68;;;5.13;;
61635;SDS011;59438;45.014;39.006;2023-06-01T06:18:41;17.58;;;5.82;;
61635;SDS011;59438;45.014;39.006;2023-06-01T06:21:07;9.63;;;4.95;;
61635;SDS011;59438;45.014;39.006;2023-06-01T06:23:33;10.75;;;5.70;;
61635;SDS011;59438;45.014;39.006;2023-06-01T06:26:00;10.52;;;6.13;;
61635;SDS011;59438;45.014;39.006;2023-06-01T06:28:26;13.57;;;5.43;;
61635;SDS011;59438;45.014;39.006;2023-06-01T06:30:52;14.52;;;5.97;;
61635;SDS011;59438;45.014;39.006;2023-06-01T06:33:19;9.18;;;4.50;;
61635;SDS011;59438;45.014;39.006;2023-06-01T06:35:46;13.43;;;5.32;;
61635;SDS011;59438;45.014;39.006;2023-06-01T06:38:13;11.68;;;5.63;;
61635;SDS011;59438;45.014;39.006;2023-06-01T06:40:39;12.23;;;5.53;;
61635;SDS011;59438;45.014;39.006;2023-06-01T06:43:05;9.18;;;4.60;;
61635;SDS011;59438;45.014;39.006;2023-06-01T06:45:32;10.07;;;4.85;;
61635;SDS011;59438;45.014;39.006;2023-06-01T06:47:58;8.32;;;5.00;;
61635;SDS011;59438;45.014;39.006;2023-06-01T06:50:24;16.13;;;5.95;;
61635;SDS011;59438;45.014;39.006;2023-06-01T06:52:52;11.75;;;6.00;;
61635;SDS011;59438;45.014;39.006;2023-06-01T06:55:18;11.50;;;5.28;;
61635;SDS011;59438;45.014;39.006;2023-06-01T06:57:45;13.05;;;5.00;;
61635;SDS011;59438;45.014;39.006;2023-06-01T07:00:12;9.68;;;4.78;;
61635;SDS011;59438;45.014;39.006;2023-06-01T07:02:39;6.32;;;4.75;;
61635;SDS011;59438;45.014;39.006;2023-06-01T07:05:06;8.52;;;4.25;;
61635;SDS011;59438;45.014;39.006;2023-06-01T07:07:32;9.32;;;4.35;;
61635;SDS011;59438;45.014;39.006;2023-06-01T07:10:00;9.82;;;4.60;;
61635;SDS011;59438;45.014;39.006;2023-06-01T07:12:27;9.38;;;4.88;;
61635;SDS011;59438;45.014;39.006;2023-06-01T07:14:53;9.50;;;5.63;;
61635;SDS011;59438;45.014;39.006;2023-06-01T07:17:19;10.13;;;4.55;;
61635;SDS011;59438;45.014;39.006;2023-06-01T07:19:46;11.02;;;5.25;;
61635;SDS011;59438;45.014;39.006;2023-06-01T07:22:12;11.32;;;4.88;;
61635;SDS011;59438;45.014;39.006;2023-06-01T07:24:38;8.32;;;4.75;;
61635;SDS011;59438;45.014;39.006;2023-06-01T07:27:06;7.70;;;4.20;;
61635;SDS011;59438;45.014;39.006;2023-06-01T07:29:33;9.15;;;4.30;;
61635;SDS011;59438;45.014;39.006;2023-06-01T07:31:59;6.45;;;4.55;;
61635;SDS011;59438;45.014;39.006;2023-06-01T07:34:25;7.18;;;4.38;;
61635;SDS011;59438;45.014;39.006;2023-06-01T07:36:52;7.95;;;4.30;;
61635;SDS011;59438;45.014;39.006;2023-06-01T07:39:18;6.53;;;3.70;;
61635;SDS011;59438;45.014;39.006;2023-06-01T07:41:44;8.00;;;3.90;;
61635;SDS011;59438;45.014;39.006;2023-06-01T07:44:12;4.53;;;3.67;;
61635;SDS011;59438;45.014;39.006;2023-06-01T07:46:38;11.05;;;4.25;;
61635;SDS011;59438;45.014;39.006;2023-06-01T07:49:05;10.60;;;4.55;;
61635;SDS011;59438;45.014;39.006;2023-06-01T07:51:31;10.05;;;4.88;;
61635;SDS011;59438;45.014;39.006;2023-06-01T07:53:57;9.68;;;5.05;;
61635;SDS011;59438;45.014;39.006;2023-06-01T07:56:24;8.35;;;4.63;;
61635;SDS011;59438;45.014;39.006;2023-06-01T07:58:50;8.25;;;4.53;;
61635;SDS011;59438;45.014;39.006;2023-06-01T08:01:18;7.82;;;4.65;;
61635;SDS011;59438;45.014;39.006;2023-06-01T08:03:45;67.78;;;6.53;;
61635;SDS011;59438;45.014;39.006;2023-06-01T08:06:11;20.27;;;4.57;;
61635;SDS011;59438;45.014;39.006;2023-06-01T08:08:37;8.43;;;4.22;;
61635;SDS011;59438;45.014;39.006;2023-06-01T08:11:04;8.90;;;4.25;;
61635;SDS011;59438;45.014;39.006;2023-06-01T08:13:30;7.70;;;4.10;;
61635;SDS011;59438;45.014;39.006;2023-06-01T08:15:57;8.18;;;4.25;;
61635;SDS011;59438;45.014;39.006;2023-06-01T08:18:24;6.88;;;3.72;;
61635;SDS011;59438;45.014;39.006;2023-06-01T08:20:51;7.03;;;3.35;;
61635;SDS011;59438;45.014;39.006;2023-06-01T08:23:17;8.15;;;3.78;;
61635;SDS011;59438;45.014;39.006;2023-06-01T08:25:44;7.32;;;3.85;;
61635;SDS011;59438;45.014;39.006;2023-06-01T08:28:11;11.43;;;4.78;;
61635;SDS011;59438;45.014;39.006;2023-06-01T08:30:37;6.93;;;3.95;;
61635;SDS011;59438;45.014;39.006;2023-06-01T08:33:03;5.57;;;3.80;;
61635;SDS011;59438;45.014;39.006;2023-06-01T08:35:31;6.60;;;3.78;;
61635;SDS011;59438;45.014;39.006;2023-06-01T08:37:58;6.65;;;3.65;;
61635;SDS011;59438;45.014;39.006;2023-06-01T08:40:24;4.70;;;3.72;;
61635;SDS011;59438;45.014;39.006;2023-06-01T08:42:53;7.70;;;4.10;;
61635;SDS011;59438;45.014;39.006;2023-06-01T08:45:24;6.95;;;4.50;;
61635;SDS011;59438;45.014;39.006;2023-06-01T08:47:52;5.72;;;3.85;;
61635;SDS011;59438;45.014;39.006;2023-06-01T08:50:19;11.20;;;3.55;;
61635;SDS011;59438;45.014;39.006;2023-06-01T08:52:47;9.85;;;3.35;;
61635;SDS011;59438;45.014;39.006;2023-06-01T08:55:18;4.97;;;3.20;;
61635;SDS011;59438;45.014;39.006;2023-06-01T08:57:44;4.28;;;3.00;;
61635;SDS011;59438;45.014;39.006;2023-06-01T09:00:11;6.47;;;3.00;;
61635;SDS011;59438;45.014;39.006;2023-06-01T09:02:38;5.15;;;3.40;;
61635;SDS011;59438;45.014;39.006;2023-06-01T09:05:05;6.43;;;3.60;;
61635;SDS011;59438;45.014;39.006;2023-06-01T09:07:31;5.78;;;2.97;;
61635;SDS011;59438;45.014;39.006;2023-06-01T09:09:59;7.10;;;3.10;;
61635;SDS011;59438;45.014;39.006;2023-06-01T09:12:26;9.77;;;2.95;;
61635;SDS011;59438;45.014;39.006;2023-06-01T09:15:06;7.03;;;3.20;;
61635;SDS011;59438;45.014;39.006;2023-06-01T09:17:34;6.68;;;3.22;;
61635;SDS011;59438;45.014;39.006;2023-06-01T09:20:01;9.77;;;3.30;;
61635;SDS011;59438;45.014;39.006;2023-06-01T09:22:37;6.57;;;3.30;;
61635;SDS011;59438;45.014;39.006;2023-06-01T09:25:06;3.58;;;2.60;;
61635;SDS011;59438;45.014;39.006;2023-06-01T09:27:42;5.05;;;2.80;;
61635;SDS011;59438;45.014;39.006;2023-06-01T09:30:10;4.20;;;2.65;;
61635;SDS011;59438;45.014;39.006;2023-06-01T09:32:37;7.30;;;2.80;;
61635;SDS011;59438;45.014;39.006;2023-06-01T09:35:04;3.40;;;2.30;;
61635;SDS011;59438;45.014;39.006;2023-06-01T09:37:30;3.78;;;2.63;;
61635;SDS011;59438;45.014;39.006;2023-06-01T09:39:57;3.80;;;2.13;;
61635;SDS011;59438;45.014;39.006;2023-06-01T09:42:31;6.38;;;2.30;;
61635;SDS011;59438;45.014;39.006;2023-06-01T09:45:13;3.05;;;1.90;;
61635;SDS011;59438;45.014;39.006;2023-06-01T09:47:40;3.03;;;1.80;;
61635;SDS011;59438;45.014;39.006;2023-06-01T09:50:07;4.32;;;2.20;;
61635;SDS011;59438;45.014;39.006;2023-06-01T09:52:33;5.35;;;2.00;;
61635;SDS011;59438;45.014;39.006;2023-06-01T09:55:05;2.30;;;1.75;;
61635;SDS011;59438;45.014;39.006;2023-06-01T09:57:34;6.00;;;2.08;;
61635;SDS011;59438;45.014;39.006;2023-06-01T10:00:01;7.32;;;2.45;;
61635;SDS011;59438;45.014;39.006;2023-06-01T10:02:28;6.65;;;2.17;;
61635;SDS011;59438;45.014;39.006;2023-06-01T10:04:55;3.08;;;2.00;;
61635;SDS011;59438;45.014;39.006;2023-06-01T10:07:22;5.50;;;2.22;;
61635;SDS011;59438;45.014;39.006;2023-06-01T10:09:50;4.78;;;2.15;;
61635;SDS011;59438;45.014;39.006;2023-06-01T10:12:19;2.95;;;2.08;;
61635;SDS011;59438;45.014;39.006;2023-06-01T10:14:47;4.85;;;2.45;;
61635;SDS011;59438;45.014;39.006;2023-06-01T10:17:14;9.23;;;2.75;;
61635;SDS011;59438;45.014;39.006;2023-06-01T10:19:41;3.67;;;2.35;;
61635;SDS011;59438;45.014;39.006;2023-06-01T10:22:07;3.53;;;2.30;;
61635;SDS011;59438;45.014;39.006;2023-06-01T10:24:35;7.43;;;2.40;;
61635;SDS011;59438;45.014;39.006;2023-06-01T10:27:04;6.75;;;2.40;;
61635;SDS011;59438;45.014;39.006;2023-06-01T10:29:35;4.57;;;2.65;;
61635;SDS011;59438;45.014;39.006;2023-06-01T10:32:04;19.88;;;3.08;;
61635;SDS011;59438;45.014;39.006;2023-06-01T10:34:51;9.43;;;2.70;;
61635;SDS011;59438;45.014;39.006;2023-06-01T10:37:17;6.85;;;3.15;;
61635;SDS011;59438;45.014;39.006;2023-06-01T10:39:44;8.45;;;3.20;;
61635;SDS011;59438;45.014;39.006;2023-06-01T10:45:08;8.20;;;2.88;;
61635;SDS011;59438;45.014;39.006;2023-06-01T10:47:54;6.30;;;3.08;;
61635;SDS011;59438;45.014;39.006;2023-06-01T10:50:20;5.88;;;2.72;;
61635;SDS011;59438;45.014;39.006;2023-06-01T10:52:46;7.88;;;2.65;;
61635;SDS011;59438;45.014;39.006;2023-06-01T10:55:23;7.85;;;2.88;;
61635;SDS011;59438;45.014;39.006;2023-06-01T10:57:50;7.25;;;2.78;;
61635;SDS011;59438;45.014;39.006;2023-06-01T11:00:18;7.63;;;2.90;;
61635;SDS011;59438;45.014;39.006;2023-06-01T11:02:49;4.40;;;2.53;;
61635;SDS011;59438;45.014;39.006;2023-06-01T11:08:04;9.20;;;3.35;;
61635;SDS011;59438;45.014;39.006;2023-06-01T11:13:20;6.57;;;2.58;;
61635;SDS011;59438;45.014;39.006;2023-06-01T11:18:50;7.22;;;2.55;;
61635;SDS011;59438;45.014;39.006;2023-06-01T11:21:20;5.18;;;2.42;;
61635;SDS011;59438;45.014;39.006;2023-06-01T11:23:47;7.07;;;2.90;;
61635;SDS011;59438;45.014;39.006;2023-06-01T11:26:15;10.02;;;2.55;;
61635;SDS011;59438;45.014;39.006;2023-06-01T11:28:42;11.98;;;3.13;;
61635;SDS011;59438;45.014;39.006;2023-06-01T11:31:10;16.02;;;3.03;;
61635;SDS011;59438;45.014;39.006;2023-06-01T11:33:38;6.70;;;2.50;;
61635;SDS011;59438;45.014;39.006;2023-06-01T11:36:05;8.25;;;2.85;;
61635;SDS011;59438;45.014;39.006;2023-06-01T11:38:35;6.50;;;2.90;;
61635;SDS011;59438;45.014;39.006;2023-06-01T11:41:04;4.35;;;2.90;;
61635;SDS011;59438;45.014;39.006;2023-06-01T11:43:30;7.05;;;2.50;;
61635;SDS011;59438;45.014;39.006;2023-06-01T11:46:00;9.23;;;2.70;;
61635;SDS011;59438;45.014;39.006;2023-06-01T11:48:27;9.15;;;3.00;;
61635;SDS011;59438;45.014;39.006;2023-06-01T11:50:53;6.38;;;2.58;;
61635;SDS011;59438;45.014;39.006;2023-06-01T11:53:20;7.68;;;2.40;;
61635;SDS011;59438;45.014;39.006;2023-06-01T11:55:51;9.82;;;2.55;;
61635;SDS011;59438;45.014;39.006;2023-06-01T11:58:22;7.07;;;2.33;;
61635;SDS011;59438;45.014;39.006;2023-06-01T12:00:49;4.97;;;2.30;;
61635;SDS011;59438;45.014;39.006;2023-06-01T12:03:15;5.82;;;2.42;;
61635;SDS011;59438;45.014;39.006;2023-06-01T12:05:42;6.85;;;2.75;;
61635;SDS011;59438;45.014;39.006;2023-06-01T12:08:08;6.07;;;2.50;;
61635;SDS011;59438;45.014;39.006;2023-06-01T12:10:39;7.00;;;2.78;;
61635;SDS011;59438;45.014;39.006;2023-06-01T12:13:09;5.57;;;2.25;;
61635;SDS011;59438;45.014;39.006;2023-06-01T12:15:36;5.38;;;2.40;;
61635;SDS011;59438;45.014;39.006;2023-06-01T12:18:03;4.15;;;2.17;;
61635;SDS011;59438;45.014;39.006;2023-06-01T12:20:30;7.32;;;2.38;;
61635;SDS011;59438;45.014;39.006;2023-06-01T12:22:57;4.85;;;2.22;;
61635;SDS011;59438;45.014;39.006;2023-06-01T12:25:25;5.45;;;2.13;;
61635;SDS011;59438;45.014;39.006;2023-06-01T12:28:03;6.65;;;2.20;;
61635;SDS011;59438;45.014;39.006;2023-06-01T12:30:32;7.43;;;2.90;;
61635;SDS011;59438;45.014;39.006;2023-06-01T12:32:58;6.80;;;2.10;;
61635;SDS011;59438;45.014;39.006;2023-06-01T12:35:25;8.45;;;2.50;;
61635;SDS011;59438;45.014;39.006;2023-06-01T12:38:02;5.75;;;2.70;;
61635;SDS011;59438;45.014;39.006;2023-06-01T12:40:29;6.88;;;2.70;;
61635;SDS011;59438;45.014;39.006;2023-06-01T12:42:55;6.18;;;2.80;;
61635;SDS011;59438;45.014;39.006;2023-06-01T12:45:21;8.75;;;2.88;;
61635;SDS011;59438;45.014;39.006;2023-06-01T12:47:49;7.82;;;2.60;;
61635;SDS011;59438;45.014;39.006;2023-06-01T12:50:15;6.78;;;2.50;;
61635;SDS011;59438;45.014;39.006;2023-06-01T12:52:42;9.30;;;2.70;;
61635;SDS011;59438;45.014;39.006;2023-06-01T12:55:09;6.82;;;2.60;;
61635;SDS011;59438;45.014;39.006;2023-06-01T12:57:35;6.95;;;2.90;;
61635;SDS011;59438;45.014;39.006;2023-06-01T13:00:02;6.20;;;2.28;;
61635;SDS011;59438;45.014;39.006;2023-06-01T13:02:29;7.90;;;2.25;;
61635;SDS011;59438;45.014;39.006;2023-06-01T13:04:57;8.82;;;2.38;;
61635;SDS011;59438;45.014;39.006;2023-06-01T13:07:23;6.38;;;2.45;;
61635;SDS011;59438;45.014;39.006;2023-06-01T13:09:50;5.25;;;2.28;;
61635;SDS011;59438;45.014;39.006;2023-06-01T13:12:16;6.57;;;2.50;;
61635;SDS011;59438;45.014;39.006;2023-06-01T13:14:43;3.80;;;2.20;;
61635;SDS011;59438;45.014;39.006;2023-06-01T13:17:09;4.53;;;2.13;;
61635;SDS011;59438;45.014;39.006;2023-06-01T13:19:36;4.43;;;2.65;;
61635;SDS011;59438;45.014;39.006;2023-06-01T13:22:04;5.05;;;2.50;;
61635;SDS011;59438;45.014;39.006;2023-06-01T13:24:30;7.65;;;2.42;;
61635;SDS011;59438;45.014;39.006;2023-06-01T13:26:56;3.72;;;2.22;;
61635;SDS011;59438;45.014;39.006;2023-06-01T13:29:23;9.32;;;2.28;;
61635;SDS011;59438;45.014;39.006;2023-06-01T13:31:49;3.50;;;2.33;;
61635;SDS011;59438;45.014;39.006;2023-06-01T13:34:15;9.85;;;2.60;;
61635;SDS011;59438;45.014;39.006;2023-06-01T13:36:42;5.05;;;2.40;;
61635;SDS011;59438;45.014;39.006;2023-06-01T13:39:10;4.72;;;2.53;;
61635;SDS011;59438;45.014;39.006;2023-06-01T13:41:36;4.18;;;2.50;;
61635;SDS011;59438;45.014;39.006;2023-06-01T13:44:02;7.10;;;2.40;;
61635;SDS011;59438;45.014;39.006;2023-06-01T13:46:29;7.18;;;2.75;;
61635;SDS011;59438;45.014;39.006;2023-06-01T13:48:55;4.10;;;2.50;;
61635;SDS011;59438;45.014;39.006;2023-06-01T13:51:21;5.72;;;2.45;;
61635;SDS011;59438;45.014;39.006;2023-06-01T13:53:48;4.25;;;2.58;;
61635;SDS011;59438;45.014;39.006;2023-06-01T13:56:15;8.80;;;3.17;;
61635;SDS011;59438;45.014;39.006;2023-06-01T13:58:42;12.80;;;3.47;;
61635;SDS011;59438;45.014;39.006;2023-06-01T14:01:08;5.97;;;2.42;;
61635;SDS011;59438;45.014;39.006;2023-06-01T14:03:34;3.90;;;2.50;;
61635;SDS011;59438;45.014;39.006;2023-06-01T14:06:01;3.75;;;2.40;;
61635;SDS011;59438;45.014;39.006;2023-06-01T14:08:27;8.35;;;2.50;;
61635;SDS011;59438;45.014;39.006;2023-06-01T14:10:53;5.75;;;2.20;;
61635;SDS011;59438;45.014;39.006;2023-06-01T14:13:21;3.65;;;2.10;;
61635;SDS011;59438;45.014;39.006;2023-06-01T14:15:48;7.45;;;2.78;;
61635;SDS011;59438;45.014;39.006;2023-06-01T14:18:14;3.38;;;2.35;;
61635;SDS011;59438;45.014;39.006;2023-06-01T14:20:41;5.43;;;2.30;;
61635;SDS011;59438;45.014;39.006;2023-06-01T14:23:07;8.25;;;3.10;;
61635;SDS011;59438;45.014;39.006;2023-06-01T14:25:35;6.28;;;2.83;;
61635;SDS011;59438;45.014;39.006;2023-06-01T14:28:01;7.60;;;2.50;;
61635;SDS011;59438;45.014;39.006;2023-06-01T14:30:29;5.88;;;2.72;;
61635;SDS011;59438;45.014;39.006;2023-06-01T14:32:56;6.75;;;2.70;;
61635;SDS011;59438;45.014;39.006;2023-06-01T14:35:22;5.97;;;2.90;;
61635;SDS011;59438;45.014;39.006;2023-06-01T14:37:49;8.48;;;3.17;;
61635;SDS011;59438;45.014;39.006;2023-06-01T14:40:15;16.90;;;3.08;;
61635;SDS011;59438;45.014;39.006;2023-06-01T14:42:41;6.43;;;2.55;;
61635;SDS011;59438;45.014;39.006;2023-06-01T14:45:08;7.68;;;3.25;;